Time;durP1;ratioP1;P1;durP2;ratioP2;P2;SDS_P1;SDS_P2;PMS_P1;PMS_P2;Temp;Humidity;BMP_temperature;BMP_pressure;BME280_temperature;BME280_humidity;BME280_pressure;Samples;Min_cycle;Max_cycle;Signal;HPM_P1;HPM_P2
2023/12/10 00:00:59;;;;;;;10.40;8.60;;;10.40;36.10;;;;;;5026117;28;21033;-48
2023/12/10 00:03:25;;;;;;;11.43;8.47;;;10.30;36.60;;;;;;5031581;28;20995;-48
2023/12/10 00:05:51;;;;;;;12.50;8.60;;;10.20;37.20;;;;;;5024948;28;20515;-50
2023/12/10 00:08:17;;;;;;;9.87;7.70;;;10.30;36.40;;;;;;5031509;28;20502;-56
2023/12/10 00:10:42;;;;;;;9.33;8.40;;;10.40;36.70;;;;;;5023747;28;20625;-57
2023/12/10 00:13:09;;;;;;;10.17;8.47;;;10.40;36.80;;;;;;5031351;28;20691;-58
2023/12/10 00:15:36;;;;;;;8.67;7.93;;;10.50;35.60;;;;;;5031515;28;20173;-58
2023/12/10 00:18:01;;;;;;;9.37;8.40;;;10.50;35.50;;;;;;5026094;28;20427;-56
2023/12/10 00:20:27;;;;;;;13.43;9.03;;;10.50;34.50;;;;;;5031255;28;20938;-51
2023/12/10 00:22:52;;;;;;;9.77;8.67;;;10.40;34.90;;;;;;5024993;28;20177;-47
2023/12/10 00:25:18;;;;;;;10.47;7.70;;;10.30;34.80;;;;;;5031772;28;20700;-48
2023/12/10 00:27:44;;;;;;;12.33;9.27;;;10.40;35.00;;;;;;5070851;28;20299;-48
2023/12/10 00:30:10;;;;;;;10.60;8.60;;;10.30;35.10;;;;;;5031639;28;20543;-47
2023/12/10 00:32:36;;;;;;;11.83;8.17;;;10.30;35.40;;;;;;5031112;28;20187;-47
2023/12/10 00:35:02;;;;;;;12.43;9.00;;;10.20;34.90;;;;;;5041703;28;20465;-46
2023/12/10 00:37:28;;;;;;;12.67;8.47;;;10.20;34.50;;;;;;5067261;28;20534;-48
2023/12/10 00:39:53;;;;;;;12.70;8.63;;;10.30;34.10;;;;;;5044373;28;20418;-46
2023/12/10 00:42:19;;;;;;;11.60;8.80;;;10.20;34.20;;;;;;5067536;28;20179;-43
2023/12/10 00:44:45;;;;;;;15.37;9.00;;;10.20;33.80;;;;;;5043184;28;20275;-45
2023/12/10 00:47:11;;;;;;;11.07;8.00;;;10.20;33.90;;;;;;5050686;28;20175;-46
2023/12/10 00:49:36;;;;;;;13.20;8.70;;;10.40;33.70;;;;;;5050949;28;20229;-47
2023/12/10 00:52:02;;;;;;;11.17;8.43;;;10.50;32.70;;;;;;5045668;28;20180;-46
2023/12/10 00:54:30;;;;;;;16.13;8.70;;;10.50;33.00;;;;;;5050695;28;20472;-46
2023/12/10 00:56:55;;;;;;;12.73;8.30;;;10.40;32.60;;;;;;5044502;28;20418;-50
2023/12/10 00:59:21;;;;;;;14.47;8.50;;;10.30;32.30;;;;;;5050453;28;20845;-49
2023/12/10 01:01:47;;;;;;;15.70;10.40;;;10.30;32.10;;;;;;5043526;28;20505;-44
2023/12/10 01:04:12;;;;;;;14.23;9.13;;;10.30;31.70;;;;;;5067425;28;20229;-45
2023/12/10 01:06:38;;;;;;;14.73;9.80;;;10.40;31.90;;;;;;5067230;28;20632;-46
2023/12/10 01:09:04;;;;;;;16.53;8.93;;;10.30;31.70;;;;;;5048860;28;20317;-54
2023/12/10 01:11:30;;;;;;;15.37;10.80;;;10.30;31.70;;;;;;5054794;28;20183;-51
2023/12/10 01:13:56;;;;;;;13.20;9.20;;;10.20;31.00;;;;;;5065386;28;20466;-54
2023/12/10 01:16:21;;;;;;;13.37;9.80;;;10.30;31.80;;;;;;5054543;28;20780;-58
2023/12/10 01:18:47;;;;;;;21.33;10.90;;;10.30;31.70;;;;;;5047460;28;20168;-56
2023/12/10 01:21:13;;;;;;;12.07;8.93;;;10.30;31.80;;;;;;5054620;28;20572;-54
2023/12/10 01:23:39;;;;;;;20.20;10.20;;;10.30;31.50;;;;;;5054588;28;20527;-53
2023/12/10 01:26:06;;;;;;;19.77;10.60;;;10.30;31.70;;;;;;5071054;28;20187;-57
2023/12/10 01:28:33;;;;;;;14.97;9.43;;;10.30;30.80;;;;;;5071182;28;20410;-55
2023/12/10 01:30:59;;;;;;;16.53;10.40;;;10.30;30.90;;;;;;5048900;28;20501;-56
2023/12/10 01:33:25;;;;;;;12.23;9.73;;;10.30;30.50;;;;;;5071102;28;20462;-46
2023/12/10 01:35:50;;;;;;;17.97;10.43;;;10.40;30.30;;;;;;5047652;28;20433;-45
2023/12/10 01:38:16;;;;;;;19.77;10.93;;;10.50;29.80;;;;;;5071016;28;20748;-46
2023/12/10 01:40:42;;;;;;;17.57;11.00;;;10.40;30.00;;;;;;5062924;28;20534;-46
2023/12/10 01:43:08;;;;;;;18.30;10.37;;;10.40;30.00;;;;;;5070750;28;20672;-47
2023/12/10 01:45:34;;;;;;;18.70;11.70;;;10.40;30.10;;;;;;5071071;28;20203;-50
2023/12/10 01:48:04;;;;;;;16.10;10.57;;;10.40;29.70;;;;;;5065191;28;20450;-50
2023/12/10 01:50:35;;;;;;;15.20;10.73;;;10.40;29.80;;;;;;5070723;28;20305;-52
2023/12/10 01:53:01;;;;;;;17.33;10.30;;;10.40;30.00;;;;;;5065319;28;20418;-50
2023/12/10 01:55:27;;;;;;;13.10;9.50;;;10.50;29.80;;;;;;5070600;28;20402;-48
2023/12/10 01:57:53;;;;;;;22.30;10.90;;;10.50;29.00;;;;;;5047336;28;20421;-51
2023/12/10 02:00:19;;;;;;;16.90;11.10;;;10.70;29.10;;;;;;5070378;28;20275;-48
2023/12/10 02:02:44;;;;;;;16.87;10.30;;;10.60;28.50;;;;;;5063064;28;20438;-49
2023/12/10 02:05:11;;;;;;;18.60;10.20;;;10.60;28.90;;;;;;5070490;28;20203;-49
2023/12/10 02:07:37;;;;;;;19.70;10.30;;;10.60;29.10;;;;;;5070334;28;20178;-48
2023/12/10 02:10:05;;;;;;;12.10;9.57;;;10.60;28.80;;;;;;5064852;28;20426;-45
2023/12/10 02:12:32;;;;;;;15.87;10.50;;;10.60;28.10;;;;;;5053672;28;20403;-55
2023/12/10 02:14:57;;;;;;;15.13;10.10;;;10.40;28.30;;;;;;5064438;28;20485;-45
2023/12/10 02:17:23;;;;;;;15.90;10.13;;;10.40;28.70;;;;;;5070127;28;20462;-48
2023/12/10 02:19:49;;;;;;;13.30;9.67;;;10.40;28.50;;;;;;5045761;28;20272;-45
2023/12/10 02:22:19;;;;;;;15.47;11.30;;;10.50;29.00;;;;;;5053623;28;20176;-45
2023/12/10 02:24:56;;;;;;;15.77;10.20;;;10.50;29.20;;;;;;5062786;28;21021;-46
2023/12/10 02:27:22;;;;;;;15.87;10.07;;;10.60;28.70;;;;;;5069998;28;20493;-47
2023/12/10 02:29:52;;;;;;;15.80;11.00;;;10.60;29.10;;;;;;5062829;28;20765;-51
2023/12/10 02:32:17;;;;;;;14.23;10.73;;;10.60;29.50;;;;;;5070115;28;20468;-53
2023/12/10 02:34:43;;;;;;;14.00;9.90;;;10.60;28.50;;;;;;5062172;28;20465;-53
2023/12/10 02:37:08;;;;;;;14.80;9.60;;;10.60;29.70;;;;;;5069763;28;20172;-50
2023/12/10 02:39:34;;;;;;;14.00;9.07;;;10.50;29.60;;;;;;5053144;28;20634;-49
2023/12/10 02:42:00;;;;;;;11.70;8.57;;;10.40;30.00;;;;;;5047693;28;20225;-51
2023/12/10 02:44:25;;;;;;;8.47;7.67;;;10.30;30.00;;;;;;5053128;28;20275;-47
2023/12/10 02:46:51;;;;;;;7.80;7.03;;;10.10;30.50;;;;;;5046291;28;20265;-46
2023/12/10 02:49:17;;;;;;;7.53;6.93;;;10.10;31.60;;;;;;5053042;28;20732;-46
2023/12/10 02:51:42;;;;;;;7.73;7.03;;;10.00;32.90;;;;;;5045232;28;20222;-49
2023/12/10 02:54:08;;;;;;;7.07;6.47;;;9.80;35.20;;;;;;5052749;28;20457;-51
2023/12/10 02:56:34;;;;;;;7.87;7.20;;;9.60;35.70;;;;;;5052753;28;20515;-45
2023/12/10 02:58:59;;;;;;;8.17;7.40;;;9.50;35.90;;;;;;5047293;28;20184;-50
2023/12/10 03:01:26;;;;;;;9.93;7.77;;;9.40;37.40;;;;;;5052877;28;20179;-45
2023/12/10 03:03:51;;;;;;;10.57;7.67;;;9.30;38.20;;;;;;5046177;28;20230;-45
2023/12/10 03:06:17;;;;;;;7.90;7.10;;;9.30;38.60;;;;;;5069136;28;20422;-45
2023/12/10 03:08:42;;;;;;;8.53;6.93;;;9.20;38.50;;;;;;5044896;28;20186;-45
2023/12/10 03:11:08;;;;;;;7.67;6.97;;;9.20;38.50;;;;;;5052499;28;20199;-45
2023/12/10 03:13:34;;;;;;;8.30;6.80;;;9.10;39.30;;;;;;5052513;28;20581;-44
2023/12/10 03:16:00;;;;;;;14.37;7.50;;;9.10;39.40;;;;;;5046850;28;20391;-47
2023/12/10 03:18:25;;;;;;;7.97;7.33;;;9.10;38.50;;;;;;5052416;28;20233;-50
2023/12/10 03:20:51;;;;;;;7.30;6.50;;;9.10;38.20;;;;;;5045780;28;20168;-52
2023/12/10 03:23:17;;;;;;;7.97;7.27;;;9.10;37.80;;;;;;5052333;28;20424;-48
2023/12/10 03:25:43;;;;;;;8.03;7.10;;;9.10;37.80;;;;;;5044415;28;20179;-47
2023/12/10 03:28:08;;;;;;;7.87;7.17;;;9.00;37.50;;;;;;5052308;28;20208;-50
2023/12/10 03:30:34;;;;;;;8.53;7.87;;;9.00;38.40;;;;;;5052227;28;20632;-47
2023/12/10 03:33:00;;;;;;;12.17;6.90;;;9.00;38.30;;;;;;5046705;28;20179;-48
2023/12/10 03:35:25;;;;;;;7.90;7.23;;;9.00;38.40;;;;;;5052187;28;20655;-45
2023/12/10 03:37:51;;;;;;;8.30;7.60;;;9.00;38.00;;;;;;5045425;28;20179;-49
2023/12/10 03:40:17;;;;;;;8.60;7.90;;;8.90;37.80;;;;;;5050528;28;20179;-56
2023/12/10 03:42:42;;;;;;;7.70;7.10;;;8.90;37.80;;;;;;5044185;28;20183;-57
2023/12/10 03:45:09;;;;;;;7.80;7.23;;;9.00;37.50;;;;;;5068271;28;20183;-58
2023/12/10 03:47:34;;;;;;;8.70;7.90;;;9.00;36.50;;;;;;5068288;28;20241;-50
2023/12/10 03:50:00;;;;;;;8.97;7.93;;;9.00;36.70;;;;;;5046160;28;20415;-47
2023/12/10 03:52:26;;;;;;;9.90;8.90;;;9.00;36.10;;;;;;5068198;28;20188;-47
2023/12/10 03:54:51;;;;;;;8.33;7.70;;;9.00;35.60;;;;;;5052704;28;20199;-52
2023/12/10 03:57:17;;;;;;;10.77;8.53;;;9.10;35.10;;;;;;5048331;28;20176;-47
2023/12/10 03:59:42;;;;;;;16.60;9.60;;;9.10;34.10;;;;;;5043472;28;20656;-45
2023/12/10 04:02:08;;;;;;;10.13;8.67;;;9.20;34.10;;;;;;5068347;28;20206;-55
2023/12/10 04:04:34;;;;;;;10.97;8.90;;;9.30;33.90;;;;;;5068126;28;20195;-55
2023/12/10 04:06:59;;;;;;;12.07;8.63;;;9.40;34.70;;;;;;5046027;28;20172;-45
2023/12/10 04:09:25;;;;;;;9.33;8.50;;;9.40;33.50;;;;;;5052663;28;20172;-55
2023/12/10 04:11:50;;;;;;;10.43;8.70;;;9.40;33.40;;;;;;5044793;28;20176;-54
2023/12/10 04:14:16;;;;;;;9.20;8.30;;;9.40;32.90;;;;;;5067922;28;20208;-46
2023/12/10 04:16:42;;;;;;;10.90;8.70;;;9.50;33.00;;;;;;5043350;28;20180;-45
2023/12/10 04:19:08;;;;;;;9.27;8.30;;;9.60;32.10;;;;;;5067902;28;20418;-45
2023/12/10 04:21:33;;;;;;;16.43;8.87;;;9.60;31.20;;;;;;5067889;28;20186;-46
2023/12/10 04:23:59;;;;;;;9.33;8.27;;;9.60;31.50;;;;;;5045809;28;20171;-45
2023/12/10 04:26:26;;;;;;;8.97;8.07;;;9.70;31.80;;;;;;5067576;28;20175;-46
2023/12/10 04:28:51;;;;;;;12.60;8.07;;;9.70;30.20;;;;;;5044677;28;20614;-50
2023/12/10 04:31:17;;;;;;;9.13;8.27;;;9.80;29.90;;;;;;5067651;28;20468;-48
2023/12/10 04:33:44;;;;;;;9.17;8.30;;;9.90;30.00;;;;;;5043397;28;20636;-47
2023/12/10 04:36:11;;;;;;;9.27;7.73;;;9.90;29.80;;;;;;5067601;28;20180;-52
2023/12/10 04:38:37;;;;;;;10.13;8.20;;;9.90;29.50;;;;;;5067487;28;20548;-56
2023/12/10 04:41:03;;;;;;;10.93;8.27;;;10.00;28.80;;;;;;5046018;28;20899;-57
2023/12/10 04:43:29;;;;;;;9.07;7.70;;;10.00;28.30;;;;;;5067246;28;20423;-57
2023/12/10 04:45:55;;;;;;;10.07;8.00;;;10.00;28.40;;;;;;5044713;28;20453;-57
2023/12/10 04:48:21;;;;;;;10.57;8.43;;;10.00;28.10;;;;;;5067545;28;20186;-51
2023/12/10 04:50:47;;;;;;;8.87;7.67;;;9.90;29.30;;;;;;5043736;28;20414;-52
2023/12/10 04:53:13;;;;;;;9.60;8.13;;;10.00;28.70;;;;;;5067416;28;20427;-52
2023/12/10 04:55:38;;;;;;;11.00;7.80;;;10.00;28.30;;;;;;5067571;28;20547;-48
2023/12/10 04:58:04;;;;;;;10.67;8.73;;;10.00;28.10;;;;;;5067496;28;20628;-48
2023/12/10 05:00:30;;;;;;;10.63;8.00;;;10.00;28.10;;;;;;5067156;28;20192;-50
2023/12/10 05:02:56;;;;;;;10.60;7.80;;;10.00;27.90;;;;;;5044984;28;20180;-52
2023/12/10 05:05:21;;;;;;;11.07;8.37;;;9.90;28.50;;;;;;5067313;28;20552;-50
2023/12/10 05:07:47;;;;;;;9.53;7.13;;;9.90;28.40;;;;;;5043337;28;20168;-57
2023/12/10 05:10:12;;;;;;;9.00;8.03;;;9.90;27.10;;;;;;5067275;28;20517;-57
2023/12/10 05:12:38;;;;;;;12.70;8.60;;;9.90;27.80;;;;;;5067431;28;20534;-56
2023/12/10 05:15:04;;;;;;;10.60;8.07;;;9.90;28.10;;;;;;5067283;28;20212;-57
2023/12/10 05:17:30;;;;;;;9.53;8.30;;;10.10;27.30;;;;;;5066928;28;20168;-56
2023/12/10 05:19:55;;;;;;;9.43;8.60;;;10.10;26.60;;;;;;5044609;28;20414;-57
2023/12/10 05:22:21;;;;;;;12.07;8.50;;;10.00;26.40;;;;;;5067164;28;20168;-57
2023/12/10 05:24:47;;;;;;;14.07;8.30;;;9.90;27.20;;;;;;5043338;28;20237;-50
2023/12/10 05:27:13;;;;;;;10.73;9.07;;;9.90;26.80;;;;;;5067049;28;20259;-46
2023/12/10 05:29:39;;;;;;;10.80;7.40;;;9.90;27.30;;;;;;5067039;28;20446;-49
2023/12/10 05:32:05;;;;;;;12.77;8.87;;;9.90;27.70;;;;;;5051738;28;20849;-45
2023/12/10 05:34:31;;;;;;;10.47;7.93;;;10.00;26.10;;;;;;5049143;28;20454;-56
2023/12/10 05:36:56;;;;;;;10.67;8.20;;;10.00;26.20;;;;;;5044369;28;20505;-57
2023/12/10 05:39:22;;;;;;;11.03;8.23;;;9.90;26.80;;;;;;5066912;28;20270;-57
2023/12/10 05:41:48;;;;;;;8.97;7.30;;;9.70;26.50;;;;;;5043404;28;20506;-57
2023/12/10 05:44:13;;;;;;;12.90;8.50;;;9.80;27.20;;;;;;5067034;28;20184;-56
2023/12/10 05:46:39;;;;;;;7.97;7.20;;;9.80;26.70;;;;;;5041931;28;20540;-56
2023/12/10 05:49:04;;;;;;;10.73;8.50;;;9.70;26.80;;;;;;5067017;28;20283;-56
2023/12/10 05:51:30;;;;;;;10.13;8.33;;;9.70;26.50;;;;;;5066765;28;20184;-52
2023/12/10 05:53:56;;;;;;;9.53;8.70;;;9.70;26.80;;;;;;5044378;28;20203;-54
2023/12/10 05:56:22;;;;;;;11.00;7.53;;;9.70;26.50;;;;;;5069949;28;20319;-51
2023/12/10 05:58:48;;;;;;;9.20;8.10;;;9.70;25.80;;;;;;5046955;28;20437;-55
2023/12/10 06:01:14;;;;;;;8.60;7.60;;;9.90;26.10;;;;;;5070584;28;20410;-53
2023/12/10 06:03:39;;;;;;;15.43;8.53;;;9.80;25.50;;;;;;5045680;28;20636;-54
2023/12/10 06:06:05;;;;;;;8.90;8.10;;;9.80;26.70;;;;;;5070362;28;20322;-56
2023/12/10 06:08:31;;;;;;;9.93;8.33;;;9.80;25.20;;;;;;5070500;28;20172;-56
2023/12/10 06:10:56;;;;;;;10.70;8.03;;;9.80;25.10;;;;;;5047900;28;20425;-56
2023/12/10 06:13:22;;;;;;;9.53;8.53;;;9.70;25.90;;;;;;5069477;28;20216;-55
2023/12/10 06:15:48;;;;;;;9.10;7.50;;;9.80;26.00;;;;;;5046567;28;20172;-55
2023/12/10 06:18:14;;;;;;;10.33;7.80;;;9.70;25.30;;;;;;5053580;28;20233;-55
2023/12/10 06:20:39;;;;;;;9.60;8.30;;;9.70;25.80;;;;;;5053449;28;20711;-55
2023/12/10 06:23:05;;;;;;;9.60;8.20;;;9.80;25.40;;;;;;5053530;28;20514;-56
2023/12/10 06:25:30;;;;;;;13.43;8.20;;;9.80;25.20;;;;;;5053450;28;20172;-53
2023/12/10 06:27:59;;;;;;;10.00;9.00;;;9.80;25.00;;;;;;5047421;28;20176;-55
2023/12/10 06:30:24;;;;;;;12.13;8.30;;;9.80;25.20;;;;;;5053367;28;20210;-55
2023/12/10 06:32:50;;;;;;;11.77;8.80;;;9.80;25.10;;;;;;5046675;28;20493;-56
2023/12/10 06:35:16;;;;;;;9.90;8.60;;;9.80;25.90;;;;;;5053243;28;20203;-55
2023/12/10 06:37:42;;;;;;;12.13;8.10;;;9.80;24.60;;;;;;5045123;28;20415;-56
2023/12/10 06:40:08;;;;;;;12.23;8.60;;;9.80;24.70;;;;;;5053123;28;20176;-55
2023/12/10 06:42:34;;;;;;;10.93;8.10;;;9.80;25.00;;;;;;5053071;28;20604;-56
2023/12/10 06:45:01;;;;;;;11.23;7.43;;;9.80;24.90;;;;;;5047818;28;20423;-56
2023/12/10 06:47:26;;;;;;;12.47;8.30;;;9.80;25.00;;;;;;5052851;28;20418;-53
2023/12/10 06:49:52;;;;;;;9.20;8.40;;;9.90;24.20;;;;;;5046520;28;20414;-53
2023/12/10 06:52:18;;;;;;;8.60;7.80;;;9.80;24.40;;;;;;5052835;28;20172;-55
2023/12/10 06:54:43;;;;;;;8.13;7.33;;;9.90;24.50;;;;;;5045263;28;20208;-45
2023/12/10 06:57:09;;;;;;;8.47;7.50;;;9.80;24.40;;;;;;5052733;28;20228;-47
2023/12/10 06:59:35;;;;;;;10.40;8.73;;;9.80;24.60;;;;;;5068351;28;20576;-47
2023/12/10 07:02:01;;;;;;;16.90;9.23;;;9.90;24.50;;;;;;5047225;28;20450;-51
2023/12/10 07:04:27;;;;;;;9.00;8.20;;;9.90;24.60;;;;;;5069205;28;20176;-43
2023/12/10 07:06:53;;;;;;;12.50;8.20;;;9.90;25.30;;;;;;5043813;28;20430;-45
2023/12/10 07:09:18;;;;;;;8.17;7.10;;;10.00;25.40;;;;;;5048541;28;20195;-43
2023/12/10 07:11:44;;;;;;;12.97;8.40;;;9.90;24.90;;;;;;5037616;28;20184;-49
2023/12/10 07:14:09;;;;;;;11.27;8.60;;;9.90;25.30;;;;;;5051597;28;20208;-43
2023/12/10 07:16:35;;;;;;;9.47;8.63;;;9.90;24.60;;;;;;5068509;28;20168;-43
2023/12/10 07:19:01;;;;;;;9.00;8.10;;;9.90;24.90;;;;;;5046287;28;20564;-49
2023/12/10 07:21:26;;;;;;;10.20;7.77;;;9.90;25.40;;;;;;5068569;28;20176;-51
2023/12/10 07:23:52;;;;;;;11.40;8.97;;;9.80;25.10;;;;;;5031645;28;20537;-51
2023/12/10 07:26:24;;;;;;;8.73;7.90;;;9.80;25.30;;;;;;5057002;28;20558;-50
2023/12/10 07:28:51;;;;;;;11.50;9.60;;;9.60;27.10;;;;;;5045393;28;20196;-54
2023/12/10 07:31:17;;;;;;;12.23;8.60;;;9.40;27.80;;;;;;5051877;28;20418;-48
2023/12/10 07:33:43;;;;;;;9.27;8.57;;;9.40;27.80;;;;;;5043919;28;20450;-51
2023/12/10 07:36:10;;;;;;;10.87;8.70;;;9.40;28.30;;;;;;5051710;28;20418;-50
2023/12/10 07:38:36;;;;;;;12.63;9.50;;;9.50;29.00;;;;;;5051682;28;20438;-43
2023/12/10 07:41:02;;;;;;;11.93;9.00;;;9.50;28.50;;;;;;5046594;28;20455;-48
2023/12/10 07:43:27;;;;;;;9.47;8.57;;;9.40;28.40;;;;;;5053497;28;20422;-45
2023/12/10 07:45:53;;;;;;;10.03;8.10;;;9.50;28.60;;;;;;5054792;28;20183;-44
2023/12/10 07:48:20;;;;;;;9.20;8.30;;;9.40;27.90;;;;;;5053897;28;20172;-43
2023/12/10 07:50:45;;;;;;;12.97;9.00;;;9.50;28.40;;;;;;5054184;28;20494;-48
2023/12/10 07:53:11;;;;;;;9.97;8.37;;;9.50;28.50;;;;;;5048176;28;20422;-49
2023/12/10 07:55:37;;;;;;;13.37;8.93;;;9.60;28.00;;;;;;5042039;28;20173;-46
2023/12/10 07:58:04;;;;;;;9.73;8.63;;;9.50;27.90;;;;;;5058268;28;20180;-46
2023/12/10 08:00:30;;;;;;;11.77;9.33;;;9.50;28.00;;;;;;5067001;28;20196;-56
2023/12/10 08:02:56;;;;;;;10.07;9.07;;;9.60;28.10;;;;;;5044126;28;20422;-55
2023/12/10 08:05:21;;;;;;;10.63;9.53;;;9.70;28.10;;;;;;5067329;28;20182;-56
2023/12/10 08:07:47;;;;;;;8.83;8.03;;;9.90;28.40;;;;;;5043635;28;20215;-54
2023/12/10 08:10:13;;;;;;;9.77;8.97;;;10.10;27.80;;;;;;5051723;28;20502;-54
2023/12/10 08:12:39;;;;;;;10.27;8.07;;;10.30;28.50;;;;;;5042394;28;20182;-44
2023/12/10 08:15:05;;;;;;;10.90;8.57;;;10.40;27.50;;;;;;5067093;28;20458;-50
2023/12/10 08:17:31;;;;;;;14.00;9.50;;;10.40;26.10;;;;;;5065891;28;20534;-49
2023/12/10 08:19:57;;;;;;;16.70;9.37;;;10.50;25.70;;;;;;5045432;28;20411;-48
2023/12/10 08:22:22;;;;;;;9.50;8.50;;;10.50;25.70;;;;;;5067822;28;20409;-51
2023/12/10 08:24:48;;;;;;;9.77;8.67;;;10.50;26.20;;;;;;5044238;28;20587;-44
2023/12/10 08:27:14;;;;;;;11.30;8.37;;;10.50;25.60;;;;;;5052196;28;20289;-46
2023/12/10 08:29:40;;;;;;;11.57;8.20;;;10.50;25.70;;;;;;5051968;28;20262;-46
2023/12/10 08:32:06;;;;;;;10.53;8.10;;;10.50;25.40;;;;;;5046086;28;20176;-48
2023/12/10 08:34:31;;;;;;;9.47;8.43;;;10.60;24.90;;;;;;5050929;28;20203;-48
2023/12/10 08:36:57;;;;;;;10.43;8.97;;;10.50;25.30;;;;;;5045180;28;20522;-51
2023/12/10 08:39:23;;;;;;;9.97;9.10;;;10.50;24.30;;;;;;5050977;28;20176;-51
2023/12/10 08:41:49;;;;;;;11.93;8.83;;;10.50;24.30;;;;;;5044225;28;20172;-46
2023/12/10 08:44:15;;;;;;;8.87;8.20;;;10.40;25.30;;;;;;5050839;28;20537;-49
2023/12/10 08:46:40;;;;;;;10.10;9.10;;;10.40;24.90;;;;;;5042720;28;20497;-47
2023/12/10 08:49:06;;;;;;;13.00;8.50;;;10.50;24.60;;;;;;5050778;28;20187;-46
2023/12/10 08:51:32;;;;;;;12.03;9.00;;;10.50;24.10;;;;;;5050797;28;20188;-49
2023/12/10 08:53:59;;;;;;;8.80;8.10;;;10.50;24.20;;;;;;5045102;28;20633;-52
2023/12/10 08:56:25;;;;;;;10.17;8.60;;;10.40;23.70;;;;;;5050546;28;20172;-49
2023/12/10 08:58:51;;;;;;;10.10;9.30;;;10.40;24.20;;;;;;5044076;28;20437;-49
2023/12/10 09:01:17;;;;;;;10.07;9.03;;;10.40;24.40;;;;;;5050692;28;20411;-46
2023/12/10 09:03:45;;;;;;;9.00;8.20;;;10.40;24.10;;;;;;5043038;28;20300;-48
2023/12/10 09:06:11;;;;;;;9.63;8.73;;;10.40;23.70;;;;;;5050633;28;20203;-48
2023/12/10 09:08:37;;;;;;;11.57;8.60;;;10.40;24.10;;;;;;5050581;28;20419;-48
2023/12/10 09:11:04;;;;;;;9.80;8.80;;;10.50;23.90;;;;;;5045746;28;20460;-48
2023/12/10 09:13:35;;;;;;;10.10;8.10;;;10.40;24.00;;;;;;5050498;28;20203;-47
2023/12/10 09:16:00;;;;;;;9.77;8.77;;;10.30;24.40;;;;;;5045346;28;20464;-48
2023/12/10 09:18:26;;;;;;;11.23;9.30;;;10.30;24.90;;;;;;5051756;28;20406;-48
2023/12/10 09:20:52;;;;;;;14.20;9.13;;;10.20;24.20;;;;;;5044129;28;20168;-49
2023/12/10 09:23:18;;;;;;;8.70;8.00;;;10.30;24.70;;;;;;5050627;28;20176;-48
2023/12/10 09:25:44;;;;;;;9.37;8.37;;;10.40;24.60;;;;;;5042788;28;21159;-49
2023/12/10 09:28:09;;;;;;;10.33;8.70;;;10.40;25.00;;;;;;5033901;28;20172;-52
2023/12/10 09:30:35;;;;;;;10.57;8.50;;;10.30;24.00;;;;;;5054331;28;20194;-52
2023/12/10 09:33:01;;;;;;;9.30;8.40;;;10.40;24.60;;;;;;5049414;28;20545;-52
2023/12/10 09:35:26;;;;;;;9.23;8.43;;;10.30;25.00;;;;;;5054326;28;20285;-51
2023/12/10 09:37:52;;;;;;;9.40;8.50;;;10.20;25.80;;;;;;5047818;28;20180;-49
2023/12/10 09:40:18;;;;;;;9.30;8.27;;;10.10;26.70;;;;;;5054309;28;20169;-51
2023/12/10 09:42:44;;;;;;;10.40;9.37;;;10.10;25.90;;;;;;5055526;28;20186;-48
2023/12/10 09:45:10;;;;;;;9.57;8.70;;;10.10;26.30;;;;;;5050529;28;20212;-50
2023/12/10 09:47:36;;;;;;;10.00;7.80;;;10.10;26.00;;;;;;5055168;28;20176;-50
2023/12/10 09:50:03;;;;;;;8.67;7.60;;;10.10;26.80;;;;;;5049034;28;20496;-46
2023/12/10 09:52:29;;;;;;;11.97;8.73;;;10.20;26.20;;;;;;5054014;28;20416;-48
2023/12/10 09:54:54;;;;;;;8.30;7.50;;;10.20;26.50;;;;;;5055173;28;20453;-48
2023/12/10 09:57:21;;;;;;;9.53;8.30;;;10.20;27.00;;;;;;5051340;28;20172;-50
2023/12/10 09:59:47;;;;;;;7.90;7.30;;;10.10;27.10;;;;;;5046559;28;20195;-48
2023/12/10 10:02:15;;;;;;;8.63;7.93;;;10.10;27.30;;;;;;5053889;28;20440;-50
2023/12/10 10:04:41;;;;;;;8.50;7.70;;;10.00;26.50;;;;;;5045962;28;20783;-49
2023/12/10 10:07:08;;;;;;;8.27;7.37;;;10.00;27.30;;;;;;5054912;28;20411;-47
2023/12/10 10:09:34;;;;;;;7.53;7.03;;;9.90;28.20;;;;;;5052987;28;20418;-51
2023/12/10 10:12:00;;;;;;;7.10;6.40;;;10.00;27.60;;;;;;5048621;28;20426;-47
2023/12/10 10:14:26;;;;;;;8.13;6.53;;;10.00;28.00;;;;;;5054888;28;20843;-50
2023/12/10 10:16:51;;;;;;;8.37;7.67;;;10.00;27.20;;;;;;5046956;28;20588;-52
2023/12/10 10:19:17;;;;;;;7.63;7.00;;;10.00;27.80;;;;;;5054131;28;20458;-50
2023/12/10 10:21:43;;;;;;;7.93;7.13;;;9.90;29.20;;;;;;5037678;28;20180;-47
2023/12/10 10:24:09;;;;;;;9.37;6.80;;;9.90;29.10;;;;;;5054538;28;20188;-50
2023/12/10 10:26:36;;;;;;;7.63;7.03;;;9.90;29.20;;;;;;5063379;28;20191;-48
2023/12/10 10:29:05;;;;;;;9.03;7.50;;;9.80;28.80;;;;;;5038127;28;20937;-49
2023/12/10 10:31:33;;;;;;;10.70;7.40;;;9.80;29.70;;;;;;5051953;28;20414;-47
2023/12/10 10:34:03;;;;;;;9.83;7.30;;;9.80;29.30;;;;;;5049713;28;20523;-56
2023/12/10 10:36:29;;;;;;;12.23;7.80;;;9.70;30.00;;;;;;5053969;28;20413;-55
2023/12/10 10:38:56;;;;;;;10.57;7.57;;;9.80;31.20;;;;;;5054416;28;20457;-57
2023/12/10 10:41:22;;;;;;;9.20;7.43;;;9.70;30.50;;;;;;5068625;28;20450;-53
2023/12/10 10:43:48;;;;;;;7.60;7.07;;;9.80;30.20;;;;;;5035134;28;20446;-56
2023/12/10 10:46:19;;;;;;;8.40;7.70;;;9.90;30.00;;;;;;5060869;28;20513;-58
2023/12/10 10:48:48;;;;;;;8.90;8.00;;;9.90;29.30;;;;;;5064748;28;20406;-57
2023/12/10 10:51:14;;;;;;;8.37;7.37;;;9.90;29.30;;;;;;5071344;28;20418;-56
2023/12/10 10:53:41;;;;;;;8.00;7.20;;;9.90;29.60;;;;;;5064761;28;20540;-56
2023/12/10 10:56:08;;;;;;;9.17;7.60;;;9.90;29.00;;;;;;5072796;28;20420;-54
2023/12/10 10:58:39;;;;;;;8.50;7.50;;;10.00;27.90;;;;;;5072780;28;20700;-56
2023/12/10 11:01:05;;;;;;;8.07;7.37;;;9.90;28.80;;;;;;5068167;28;20902;-56
2023/12/10 11:03:31;;;;;;;8.60;7.40;;;10.00;28.10;;;;;;5072797;28;20460;-55
2023/12/10 11:06:01;;;;;;;8.83;6.70;;;10.00;28.30;;;;;;5056646;28;20462;-58
2023/12/10 11:08:28;;;;;;;8.17;6.80;;;10.10;27.80;;;;;;5052083;28;20183;-53
2023/12/10 11:11:00;;;;;;;8.07;7.13;;;10.10;27.70;;;;;;5046652;28;20746;-56
2023/12/10 11:13:46;;;;;;;12.80;7.90;;;10.10;27.30;;;;;;5045814;28;20438;-56
2023/12/10 11:16:12;;;;;;;9.70;7.10;;;10.00;27.30;;;;;;5056858;28;20933;-58
2023/12/10 11:18:51;;;;;;;7.43;6.73;;;10.10;27.90;;;;;;5053612;28;20958;-57
2023/12/10 11:21:17;;;;;;;8.40;6.90;;;10.00;28.10;;;;;;5089034;28;20466;-58
2023/12/10 11:23:43;;;;;;;7.83;7.00;;;10.10;27.70;;;;;;5064277;28;20520;-56
2023/12/10 11:26:08;;;;;;;8.07;7.13;;;10.10;27.90;;;;;;5088458;28;20517;-57
2023/12/10 11:28:34;;;;;;;8.77;7.10;;;10.10;28.30;;;;;;5071088;28;20176;-48
2023/12/10 11:31:00;;;;;;;8.77;6.90;;;10.00;27.50;;;;;;5066334;28;20183;-50
2023/12/10 11:33:27;;;;;;;9.50;7.00;;;10.00;27.50;;;;;;5088420;28;20176;-51
2023/12/10 11:35:57;;;;;;;8.27;6.80;;;10.00;27.90;;;;;;5064511;28;20420;-47
2023/12/10 11:38:22;;;;;;;11.23;7.47;;;9.90;28.70;;;;;;5071245;28;20417;-47
2023/12/10 11:40:48;;;;;;;7.97;7.00;;;9.90;28.90;;;;;;5054406;28;20970;-48
2023/12/10 11:43:14;;;;;;;8.40;7.17;;;9.90;29.10;;;;;;5056144;28;20410;-46
2023/12/10 11:45:40;;;;;;;8.60;7.70;;;9.90;29.30;;;;;;5041584;28;20541;-46
2023/12/10 11:48:06;;;;;;;10.23;8.00;;;10.00;28.80;;;;;;5045055;28;20644;-43
2023/12/10 11:50:32;;;;;;;8.63;7.40;;;10.00;28.90;;;;;;5054624;28;20172;-47
2023/12/10 11:52:58;;;;;;;9.77;8.07;;;10.00;28.80;;;;;;5044599;28;20430;-47
2023/12/10 11:55:24;;;;;;;11.00;7.70;;;9.90;29.80;;;;;;5051363;28;20466;-46
2023/12/10 11:57:50;;;;;;;12.33;8.63;;;9.90;29.70;;;;;;5042314;28;20418;-48
2023/12/10 12:00:16;;;;;;;14.47;8.40;;;9.90;30.00;;;;;;5044570;28;20432;-46
2023/12/10 12:02:43;;;;;;;12.20;8.00;;;10.00;29.30;;;;;;5041768;28;20167;-45
2023/12/10 12:05:13;;;;;;;9.40;8.40;;;10.10;29.30;;;;;;5041729;28;20179;-48
2023/12/10 12:07:40;;;;;;;13.00;8.03;;;10.10;29.10;;;;;;5035117;28;20484;-50
2023/12/10 12:10:07;;;;;;;11.00;8.63;;;10.20;28.70;;;;;;5051651;28;20414;-52
2023/12/10 12:12:41;;;;;;;10.73;7.40;;;10.20;28.10;;;;;;5051076;28;20423;-50
2023/12/10 12:15:10;;;;;;;8.70;7.90;;;10.20;27.80;;;;;;5052636;28;20487;-44
2023/12/10 12:17:39;;;;;;;9.87;8.63;;;10.20;28.10;;;;;;5049656;28;20429;-46
2023/12/10 12:20:18;;;;;;;8.43;7.70;;;10.20;28.50;;;;;;5049353;28;20509;-46
2023/12/10 12:22:45;;;;;;;7.63;6.93;;;10.20;27.40;;;;;;5045050;28;20949;-48
2023/12/10 12:25:11;;;;;;;7.93;7.10;;;10.30;27.50;;;;;;5050895;28;20525;-50
2023/12/10 12:27:36;;;;;;;8.13;7.43;;;10.30;27.70;;;;;;5050493;28;20418;-45
2023/12/10 12:30:02;;;;;;;12.17;10.77;;;10.20;27.50;;;;;;5057107;28;20421;-49
2023/12/10 12:32:28;;;;;;;8.70;7.83;;;10.20;27.40;;;;;;5079768;28;20178;-52
2023/12/10 12:34:54;;;;;;;9.23;6.90;;;10.30;27.80;;;;;;5044402;28;20461;-49
2023/12/10 12:37:19;;;;;;;7.87;7.07;;;10.30;26.80;;;;;;5050033;28;20203;-48
2023/12/10 12:39:45;;;;;;;9.90;7.77;;;10.30;27.40;;;;;;5043821;28;20226;-50